sensor_id;sensor_type;location;lat;lon;timestamp;temperature;humidity
31765;DHT22;18338;53.240;8.798;2023-08-31T00:01:06;12.50;99.90
31765;DHT22;18338;53.240;8.798;2023-08-31T00:03:33;12.40;99.90
31765;DHT22;18338;53.240;8.798;2023-08-31T00:06:04;12.30;99.90
31765;DHT22;18338;53.240;8.798;2023-08-31T00:08:34;12.20;99.90
31765;DHT22;18338;53.240;8.798;2023-08-31T00:11:01;12.20;99.90
31765;DHT22;18338;53.240;8.798;2023-08-31T00:13:28;12.20;99.90
31765;DHT22;18338;53.240;8.798;2023-08-31T00:15:56;12.10;99.90
31765;DHT22;18338;53.240;8.798;2023-08-31T00:18:25;12.10;99.90
31765;DHT22;18338;53.240;8.798;2023-08-31T00:20:52;12.10;99.90
31765;DHT22;18338;53.240;8.798;2023-08-31T00:23:18;12.10;99.90
31765;DHT22;18338;53.240;8.798;2023-08-31T00:25:46;12.00;99.90
31765;DHT22;18338;53.240;8.798;2023-08-31T00:28:15;12.00;99.90
31765;DHT22;18338;53.240;8.798;2023-08-31T00:30:44;12.00;99.90
31765;DHT22;18338;53.240;8.798;2023-08-31T00:33:12;11.90;99.90
31765;DHT22;18338;53.240;8.798;2023-08-31T00:35:40;11.80;99.90
31765;DHT22;18338;53.240;8.798;2023-08-31T00:38:13;11.80;99.90
31765;DHT22;18338;53.240;8.798;2023-08-31T00:40:41;11.80;99.90
31765;DHT22;18338;53.240;8.798;2023-08-31T00:43:15;11.80;99.90
31765;DHT22;18338;53.240;8.798;2023-08-31T00:45:45;11.70;99.90
31765;DHT22;18338;53.240;8.798;2023-08-31T00:48:16;11.70;99.90
31765;DHT22;18338;53.240;8.798;2023-08-31T00:50:47;11.60;99.90
31765;DHT22;18338;53.240;8.798;2023-08-31T00:53:23;11.60;99.90
31765;DHT22;18338;53.240;8.798;2023-08-31T00:55:50;11.60;99.90
31765;DHT22;18338;53.240;8.798;2023-08-31T00:58:16;11.60;99.90
31765;DHT22;18338;53.240;8.798;2023-08-31T01:00:55;11.60;99.90
31765;DHT22;18338;53.240;8.798;2023-08-31T01:09:20;11.50;99.90
31765;DHT22;18338;53.240;8.798;2023-08-31T01:12:03;11.40;99.90
31765;DHT22;18338;53.240;8.798;2023-08-31T01:14:42;11.30;99.90
31765;DHT22;18338;53.240;8.798;2023-08-31T01:17:12;11.30;99.90
31765;DHT22;18338;53.240;8.798;2023-08-31T01:19:49;11.30;99.90
31765;DHT22;18338;53.240;8.798;2023-08-31T01:24:59;11.20;99.90
31765;DHT22;18338;53.240;8.798;2023-08-31T01:27:33;11.10;99.90
31765;DHT22;18338;53.240;8.798;2023-08-31T01:30:00;11.10;99.90
31765;DHT22;18338;53.240;8.798;2023-08-31T01:32:31;11.20;99.90
31765;DHT22;18338;53.240;8.798;2023-08-31T01:34:58;11.10;99.90
31765;DHT22;18338;53.240;8.798;2023-08-31T01:40:07;11.10;99.90
31765;DHT22;18338;53.240;8.798;2023-08-31T01:42:38;11.00;99.90
31765;DHT22;18338;53.240;8.798;2023-08-31T01:45:05;11.00;99.90
31765;DHT22;18338;53.240;8.798;2023-08-31T01:47:33;11.00;99.90
31765;DHT22;18338;53.240;8.798;2023-08-31T01:49:59;11.00;99.90
31765;DHT22;18338;53.240;8.798;2023-08-31T01:52:26;11.00;99.90
31765;DHT22;18338;53.240;8.798;2023-08-31T01:54:53;11.00;99.90
31765;DHT22;18338;53.240;8.798;2023-08-31T01:57:20;11.10;99.90
31765;DHT22;18338;53.240;8.798;2023-08-31T01:59:47;11.00;99.90
31765;DHT22;18338;53.240;8.798;2023-08-31T02:02:14;11.00;99.90
31765;DHT22;18338;53.240;8.798;2023-08-31T02:04:43;11.00;99.90
31765;DHT22;18338;53.240;8.798;2023-08-31T02:07:09;11.00;99.90
31765;DHT22;18338;53.240;8.798;2023-08-31T02:09:36;11.00;99.90
31765;DHT22;18338;53.240;8.798;2023-08-31T02:12:03;11.00;99.90
31765;DHT22;18338;53.240;8.798;2023-08-31T02:14:30;11.00;99.90
31765;DHT22;18338;53.240;8.798;2023-08-31T02:16:57;11.00;99.90
31765;DHT22;18338;53.240;8.798;2023-08-31T02:19:24;11.00;99.90
31765;DHT22;18338;53.240;8.798;2023-08-31T02:21:50;10.90;99.90
31765;DHT22;18338;53.240;8.798;2023-08-31T02:24:18;10.80;99.90
31765;DHT22;18338;53.240;8.798;2023-08-31T02:26:47;10.80;99.90
31765;DHT22;18338;53.240;8.798;2023-08-31T02:29:14;10.80;99.90
31765;DHT22;18338;53.240;8.798;2023-08-31T02:31:41;10.70;99.90
31765;DHT22;18338;53.240;8.798;2023-08-31T02:34:08;10.70;99.90
31765;DHT22;18338;53.240;8.798;2023-08-31T02:36:35;10.80;99.90
31765;DHT22;18338;53.240;8.798;2023-08-31T02:39:02;10.70;99.90
31765;DHT22;18338;53.240;8.798;2023-08-31T02:41:30;10.70;99.90
31765;DHT22;18338;53.240;8.798;2023-08-31T02:43:57;10.60;99.90
31765;DHT22;18338;53.240;8.798;2023-08-31T02:46:24;10.50;99.90
31765;DHT22;18338;53.240;8.798;2023-08-31T02:48:51;10.50;99.90
31765;DHT22;18338;53.240;8.798;2023-08-31T02:51:18;10.70;99.90
31765;DHT22;18338;53.240;8.798;2023-08-31T02:53:44;10.70;99.90
31765;DHT22;18338;53.240;8.798;2023-08-31T02:56:11;10.70;99.90
31765;DHT22;18338;53.240;8.798;2023-08-31T02:58:38;10.70;99.90
31765;DHT22;18338;53.240;8.798;2023-08-31T03:01:10;10.60;99.90
31765;DHT22;18338;53.240;8.798;2023-08-31T03:03:38;10.50;99.90
31765;DHT22;18338;53.240;8.798;2023-08-31T03:06:09;10.50;99.90
31765;DHT22;18338;53.240;8.798;2023-08-31T03:08:37;10.60;99.90
31765;DHT22;18338;53.240;8.798;2023-08-31T03:11:05;10.60;99.90
31765;DHT22;18338;53.240;8.798;2023-08-31T03:13:33;10.50;99.90
31765;DHT22;18338;53.240;8.798;2023-08-31T03:16:00;10.50;99.90
31765;DHT22;18338;53.240;8.798;2023-08-31T03:18:28;10.50;99.90
31765;DHT22;18338;53.240;8.798;2023-08-31T03:20:55;10.50;99.90
31765;DHT22;18338;53.240;8.798;2023-08-31T03:23:22;10.40;99.90
31765;DHT22;18338;53.240;8.798;2023-08-31T03:25:49;10.40;99.90
31765;DHT22;18338;53.240;8.798;2023-08-31T03:28:15;10.50;99.90
31765;DHT22;18338;53.240;8.798;2023-08-31T03:30:42;10.50;99.90
31765;DHT22;18338;53.240;8.798;2023-08-31T03:33:11;10.50;99.90
31765;DHT22;18338;53.240;8.798;2023-08-31T03:35:39;10.40;99.90
31765;DHT22;18338;53.240;8.798;2023-08-31T03:38:06;10.40;99.90
31765;DHT22;18338;53.240;8.798;2023-08-31T03:40:32;10.30;99.90
31765;DHT22;18338;53.240;8.798;2023-08-31T03:42:59;10.40;99.90
31765;DHT22;18338;53.240;8.798;2023-08-31T03:45:27;10.40;99.90
31765;DHT22;18338;53.240;8.798;2023-08-31T03:47:54;10.40;99.90
31765;DHT22;18338;53.240;8.798;2023-08-31T03:50:20;10.30;99.90
31765;DHT22;18338;53.240;8.798;2023-08-31T03:52:47;10.20;99.90
31765;DHT22;18338;53.240;8.798;2023-08-31T03:55:14;10.20;99.90
31765;DHT22;18338;53.240;8.798;2023-08-31T03:57:40;10.20;99.90
31765;DHT22;18338;53.240;8.798;2023-08-31T04:00:08;10.20;99.90
31765;DHT22;18338;53.240;8.798;2023-08-31T04:02:42;10.20;99.90
31765;DHT22;18338;53.240;8.798;2023-08-31T04:05:09;10.20;99.90
31765;DHT22;18338;53.240;8.798;2023-08-31T04:07:36;10.30;99.90
31765;DHT22;18338;53.240;8.798;2023-08-31T04:10:03;10.30;99.90
31765;DHT22;18338;53.240;8.798;2023-08-31T04:12:30;10.30;99.90
31765;DHT22;18338;53.240;8.798;2023-08-31T04:14:57;10.30;99.90
31765;DHT22;18338;53.240;8.798;2023-08-31T04:17:24;10.40;99.90
31765;DHT22;18338;53.240;8.798;2023-08-31T04:19:51;10.40;99.90
31765;DHT22;18338;53.240;8.798;2023-08-31T04:22:17;10.40;99.90
31765;DHT22;18338;53.240;8.798;2023-08-31T04:24:44;10.40;99.90
31765;DHT22;18338;53.240;8.798;2023-08-31T04:27:11;10.40;99.90
31765;DHT22;18338;53.240;8.798;2023-08-31T04:29:37;10.30;99.90
31765;DHT22;18338;53.240;8.798;2023-08-31T04:32:05;10.30;99.90
31765;DHT22;18338;53.240;8.798;2023-08-31T04:34:31;10.30;99.90
31765;DHT22;18338;53.240;8.798;2023-08-31T04:36:58;10.30;99.90
31765;DHT22;18338;53.240;8.798;2023-08-31T04:39:25;10.30;99.90
31765;DHT22;18338;53.240;8.798;2023-08-31T04:41:53;10.30;99.90
31765;DHT22;18338;53.240;8.798;2023-08-31T04:44:20;10.30;99.90
31765;DHT22;18338;53.240;8.798;2023-08-31T04:46:47;10.20;99.90
31765;DHT22;18338;53.240;8.798;2023-08-31T04:49:13;10.20;99.90
31765;DHT22;18338;53.240;8.798;2023-08-31T04:51:40;10.20;99.90
31765;DHT22;18338;53.240;8.798;2023-08-31T04:54:08;10.30;99.90
31765;DHT22;18338;53.240;8.798;2023-08-31T04:56:38;10.30;99.90
31765;DHT22;18338;53.240;8.798;2023-08-31T04:59:04;10.30;99.90
31765;DHT22;18338;53.240;8.798;2023-08-31T05:01:31;10.30;99.90
31765;DHT22;18338;53.240;8.798;2023-08-31T05:03:58;10.40;99.90
31765;DHT22;18338;53.240;8.798;2023-08-31T05:06:25;10.50;99.90
31765;DHT22;18338;53.240;8.798;2023-08-31T05:08:52;10.50;99.90
31765;DHT22;18338;53.240;8.798;2023-08-31T05:11:19;10.50;99.90
31765;DHT22;18338;53.240;8.798;2023-08-31T05:13:47;10.50;99.90
31765;DHT22;18338;53.240;8.798;2023-08-31T05:16:14;10.50;99.90
31765;DHT22;18338;53.240;8.798;2023-08-31T05:18:41;10.60;99.90
31765;DHT22;18338;53.240;8.798;2023-08-31T05:21:26;10.60;99.90
31765;DHT22;18338;53.240;8.798;2023-08-31T05:23:52;10.70;99.90
31765;DHT22;18338;53.240;8.798;2023-08-31T05:26:19;10.70;99.90
31765;DHT22;18338;53.240;8.798;2023-08-31T05:28:46;10.80;99.90
31765;DHT22;18338;53.240;8.798;2023-08-31T05:31:13;10.80;99.90
31765;DHT22;18338;53.240;8.798;2023-08-31T05:33:40;10.80;99.90
31765;DHT22;18338;53.240;8.798;2023-08-31T05:36:07;10.90;99.90
31765;DHT22;18338;53.240;8.798;2023-08-31T05:38:34;10.90;99.90
31765;DHT22;18338;53.240;8.798;2023-08-31T05:41:07;11.00;99.90
31765;DHT22;18338;53.240;8.798;2023-08-31T05:43:35;11.00;99.90
31765;DHT22;18338;53.240;8.798;2023-08-31T05:46:02;11.00;99.90
31765;DHT22;18338;53.240;8.798;2023-08-31T05:48:30;11.10;99.90
31765;DHT22;18338;53.240;8.798;2023-08-31T05:50:57;11.20;99.90
31765;DHT22;18338;53.240;8.798;2023-08-31T05:53:24;11.30;99.90
31765;DHT22;18338;53.240;8.798;2023-08-31T05:55:51;11.40;99.90
31765;DHT22;18338;53.240;8.798;2023-08-31T05:58:17;11.40;99.90
31765;DHT22;18338;53.240;8.798;2023-08-31T06:00:44;11.50;99.90
31765;DHT22;18338;53.240;8.798;2023-08-31T06:03:11;11.50;99.90
31765;DHT22;18338;53.240;8.798;2023-08-31T06:05:38;11.50;99.90
31765;DHT22;18338;53.240;8.798;2023-08-31T06:08:05;11.60;99.90
31765;DHT22;18338;53.240;8.798;2023-08-31T06:10:32;11.70;99.90
31765;DHT22;18338;53.240;8.798;2023-08-31T06:12:59;11.80;99.90
31765;DHT22;18338;53.240;8.798;2023-08-31T06:15:25;11.80;99.90
31765;DHT22;18338;53.240;8.798;2023-08-31T06:17:52;11.90;99.90
31765;DHT22;18338;53.240;8.798;2023-08-31T06:20:19;12.10;99.90
31765;DHT22;18338;53.240;8.798;2023-08-31T06:22:45;12.20;99.90
31765;DHT22;18338;53.240;8.798;2023-08-31T06:25:12;12.30;99.90
31765;DHT22;18338;53.240;8.798;2023-08-31T06:27:42;12.40;99.90
31765;DHT22;18338;53.240;8.798;2023-08-31T06:30:09;12.50;99.90
31765;DHT22;18338;53.240;8.798;2023-08-31T06:32:46;12.50;99.90
31765;DHT22;18338;53.240;8.798;2023-08-31T06:35:14;12.60;99.90
31765;DHT22;18338;53.240;8.798;2023-08-31T06:37:43;12.70;99.90
31765;DHT22;18338;53.240;8.798;2023-08-31T06:40:10;12.90;99.90
31765;DHT22;18338;53.240;8.798;2023-08-31T06:42:37;13.00;99.90
31765;DHT22;18338;53.240;8.798;2023-08-31T06:45:06;13.10;99.90
31765;DHT22;18338;53.240;8.798;2023-08-31T06:47:34;13.10;99.90
31765;DHT22;18338;53.240;8.798;2023-08-31T06:50:01;13.00;99.90
31765;DHT22;18338;53.240;8.798;2023-08-31T06:52:28;13.00;99.90
31765;DHT22;18338;53.240;8.798;2023-08-31T06:54:58;13.10;99.90
31765;DHT22;18338;53.240;8.798;2023-08-31T06:57:26;13.20;99.90
31765;DHT22;18338;53.240;8.798;2023-08-31T06:59:53;13.30;99.90
31765;DHT22;18338;53.240;8.798;2023-08-31T07:02:20;13.40;99.90
31765;DHT22;18338;53.240;8.798;2023-08-31T07:04:49;13.50;99.90
31765;DHT22;18338;53.240;8.798;2023-08-31T07:07:18;13.60;99.90
31765;DHT22;18338;53.240;8.798;2023-08-31T07:09:46;13.60;99.90
31765;DHT22;18338;53.240;8.798;2023-08-31T07:12:14;13.90;99.90
31765;DHT22;18338;53.240;8.798;2023-08-31T07:14:41;14.20;99.90
31765;DHT22;18338;53.240;8.798;2023-08-31T07:17:08;14.20;99.90
31765;DHT22;18338;53.240;8.798;2023-08-31T07:19:36;14.20;99.90
31765;DHT22;18338;53.240;8.798;2023-08-31T07:22:04;14.50;99.90
31765;DHT22;18338;53.240;8.798;2023-08-31T07:24:32;14.60;99.90
31765;DHT22;18338;53.240;8.798;2023-08-31T07:27:02;14.70;99.90
31765;DHT22;18338;53.240;8.798;2023-08-31T07:29:29;14.50;99.90
31765;DHT22;18338;53.240;8.798;2023-08-31T07:31:56;14.40;99.90
31765;DHT22;18338;53.240;8.798;2023-08-31T07:34:24;14.40;99.90
31765;DHT22;18338;53.240;8.798;2023-08-31T07:36:50;14.20;99.90
31765;DHT22;18338;53.240;8.798;2023-08-31T07:39:17;14.20;99.90
31765;DHT22;18338;53.240;8.798;2023-08-31T07:41:44;14.10;99.90
31765;DHT22;18338;53.240;8.798;2023-08-31T07:44:11;14.20;99.90
31765;DHT22;18338;53.240;8.798;2023-08-31T07:46:38;14.20;99.90
31765;DHT22;18338;53.240;8.798;2023-08-31T07:49:04;14.20;99.90
31765;DHT22;18338;53.240;8.798;2023-08-31T07:51:31;14.30;99.90
31765;DHT22;18338;53.240;8.798;2023-08-31T07:53:59;14.50;99.90
31765;DHT22;18338;53.240;8.798;2023-08-31T07:56:26;14.50;99.90
31765;DHT22;18338;53.240;8.798;2023-08-31T07:58:53;14.60;99.90
31765;DHT22;18338;53.240;8.798;2023-08-31T08:01:20;14.50;99.90
31765;DHT22;18338;53.240;8.798;2023-08-31T08:03:47;14.40;99.90
31765;DHT22;18338;53.240;8.798;2023-08-31T08:06:13;14.40;99.90
31765;DHT22;18338;53.240;8.798;2023-08-31T08:08:40;14.10;99.90
31765;DHT22;18338;53.240;8.798;2023-08-31T08:11:07;14.00;99.90
31765;DHT22;18338;53.240;8.798;2023-08-31T08:13:34;14.10;99.90
31765;DHT22;18338;53.240;8.798;2023-08-31T08:16:01;14.20;99.90
31765;DHT22;18338;53.240;8.798;2023-08-31T08:18:28;14.30;99.90
31765;DHT22;18338;53.240;8.798;2023-08-31T08:20:57;14.50;99.90
31765;DHT22;18338;53.240;8.798;2023-08-31T08:23:24;14.80;99.90
31765;DHT22;18338;53.240;8.798;2023-08-31T08:25:50;15.00;99.90
31765;DHT22;18338;53.240;8.798;2023-08-31T08:28:17;15.10;99.90
31765;DHT22;18338;53.240;8.798;2023-08-31T08:30:44;15.40;99.90
31765;DHT22;18338;53.240;8.798;2023-08-31T08:33:11;15.70;99.90
31765;DHT22;18338;53.240;8.798;2023-08-31T08:35:38;15.90;99.90
31765;DHT22;18338;53.240;8.798;2023-08-31T08:38:05;16.10;99.90
31765;DHT22;18338;53.240;8.798;2023-08-31T08:40:32;16.10;99.90
31765;DHT22;18338;53.240;8.798;2023-08-31T08:43:06;16.30;99.90
31765;DHT22;18338;53.240;8.798;2023-08-31T08:45:37;16.80;99.90
31765;DHT22;18338;53.240;8.798;2023-08-31T08:48:06;18.00;99.90
31765;DHT22;18338;53.240;8.798;2023-08-31T08:50:35;18.30;99.90
31765;DHT22;18338;53.240;8.798;2023-08-31T08:53:04;18.90;99.90
31765;DHT22;18338;53.240;8.798;2023-08-31T08:55:31;19.30;99.90
31765;DHT22;18338;53.240;8.798;2023-08-31T08:57:58;18.30;99.90
31765;DHT22;18338;53.240;8.798;2023-08-31T09:00:30;17.40;99.90
31765;DHT22;18338;53.240;8.798;2023-08-31T09:02:58;16.90;99.90
31765;DHT22;18338;53.240;8.798;2023-08-31T09:05:25;16.70;99.90
31765;DHT22;18338;53.240;8.798;2023-08-31T09:08:09;16.30;99.90
31765;DHT22;18338;53.240;8.798;2023-08-31T09:10:44;16.00;99.90
31765;DHT22;18338;53.240;8.798;2023-08-31T09:13:12;15.80;99.90
31765;DHT22;18338;53.240;8.798;2023-08-31T09:15:43;15.60;99.90
31765;DHT22;18338;53.240;8.798;2023-08-31T09:20:49;16.80;99.90
31765;DHT22;18338;53.240;8.798;2023-08-31T09:23:16;16.80;99.90
31765;DHT22;18338;53.240;8.798;2023-08-31T09:25:51;16.90;99.90
31765;DHT22;18338;53.240;8.798;2023-08-31T09:28:21;16.90;99.90
31765;DHT22;18338;53.240;8.798;2023-08-31T09:31:12;17.00;99.90
31765;DHT22;18338;53.240;8.798;2023-08-31T09:34:10;17.30;99.90
31765;DHT22;18338;53.240;8.798;2023-08-31T09:36:49;18.40;99.90
31765;DHT22;18338;53.240;8.798;2023-08-31T09:39:16;21.10;99.90
31765;DHT22;18338;53.240;8.798;2023-08-31T09:41:53;22.10;99.90
31765;DHT22;18338;53.240;8.798;2023-08-31T09:44:20;22.10;99.90
31765;DHT22;18338;53.240;8.798;2023-08-31T09:46:47;21.50;99.90
31765;DHT22;18338;53.240;8.798;2023-08-31T09:49:16;21.10;99.90
31765;DHT22;18338;53.240;8.798;2023-08-31T09:51:48;19.90;99.90
31765;DHT22;18338;53.240;8.798;2023-08-31T09:54:17;19.10;99.90
31765;DHT22;18338;53.240;8.798;2023-08-31T09:56:46;18.80;99.90
31765;DHT22;18338;53.240;8.798;2023-08-31T09:59:15;18.90;99.90
31765;DHT22;18338;53.240;8.798;2023-08-31T10:01:44;20.40;99.90
31765;DHT22;18338;53.240;8.798;2023-08-31T10:04:11;22.50;99.90
31765;DHT22;18338;53.240;8.798;2023-08-31T10:06:39;23.50;99.90
31765;DHT22;18338;53.240;8.798;2023-08-31T10:09:07;22.30;99.90
31765;DHT22;18338;53.240;8.798;2023-08-31T10:11:37;20.70;99.90
31765;DHT22;18338;53.240;8.798;2023-08-31T10:14:04;20.90;99.90
31765;DHT22;18338;53.240;8.798;2023-08-31T10:16:32;20.60;99.90
31765;DHT22;18338;53.240;8.798;2023-08-31T10:18:59;21.10;99.90
31765;DHT22;18338;53.240;8.798;2023-08-31T10:21:26;21.40;99.90
31765;DHT22;18338;53.240;8.798;2023-08-31T10:23:52;22.00;99.90
31765;DHT22;18338;53.240;8.798;2023-08-31T10:26:37;22.60;99.90
31765;DHT22;18338;53.240;8.798;2023-08-31T10:29:04;25.60;99.90
31765;DHT22;18338;53.240;8.798;2023-08-31T10:31:33;26.70;99.90
31765;DHT22;18338;53.240;8.798;2023-08-31T10:34:05;26.20;99.90
31765;DHT22;18338;53.240;8.798;2023-08-31T10:41:39;26.50;99.90
31765;DHT22;18338;53.240;8.798;2023-08-31T10:44:23;28.70;97.40
31765;DHT22;18338;53.240;8.798;2023-08-31T10:46:51;28.60;94.30
31765;DHT22;18338;53.240;8.798;2023-08-31T10:49:20;29.40;92.80
31765;DHT22;18338;53.240;8.798;2023-08-31T10:52:00;29.50;93.60
31765;DHT22;18338;53.240;8.798;2023-08-31T10:54:55;29.20;91.70
31765;DHT22;18338;53.240;8.798;2023-08-31T10:57:30;26.60;95.90
31765;DHT22;18338;53.240;8.798;2023-08-31T10:59:57;26.00;98.20
31765;DHT22;18338;53.240;8.798;2023-08-31T11:02:42;25.90;98.30
31765;DHT22;18338;53.240;8.798;2023-08-31T11:05:28;24.70;99.70
31765;DHT22;18338;53.240;8.798;2023-08-31T11:07:55;23.10;99.90
31765;DHT22;18338;53.240;8.798;2023-08-31T11:10:24;22.80;99.90
31765;DHT22;18338;53.240;8.798;2023-08-31T11:12:55;22.50;99.90
31765;DHT22;18338;53.240;8.798;2023-08-31T11:15:25;21.70;99.90
31765;DHT22;18338;53.240;8.798;2023-08-31T11:17:58;20.60;99.90
31765;DHT22;18338;53.240;8.798;2023-08-31T11:20:25;19.80;99.90
31765;DHT22;18338;53.240;8.798;2023-08-31T11:22:55;18.10;99.90
31765;DHT22;18338;53.240;8.798;2023-08-31T11:25:22;17.10;99.90
31765;DHT22;18338;53.240;8.798;2023-08-31T11:27:56;16.50;99.90
31765;DHT22;18338;53.240;8.798;2023-08-31T11:30:25;16.30;99.90
31765;DHT22;18338;53.240;8.798;2023-08-31T11:32:52;16.40;99.90
31765;DHT22;18338;53.240;8.798;2023-08-31T11:35:23;16.40;99.90
31765;DHT22;18338;53.240;8.798;2023-08-31T11:37:56;16.30;99.90
31765;DHT22;18338;53.240;8.798;2023-08-31T11:40:25;16.30;99.90
31765;DHT22;18338;53.240;8.798;2023-08-31T11:42:52;16.10;99.90
31765;DHT22;18338;53.240;8.798;2023-08-31T11:45:19;15.90;99.90
31765;DHT22;18338;53.240;8.798;2023-08-31T11:47:48;15.80;99.90
31765;DHT22;18338;53.240;8.798;2023-08-31T11:50:16;15.80;99.90
31765;DHT22;18338;53.240;8.798;2023-08-31T11:52:44;15.90;99.90
31765;DHT22;18338;53.240;8.798;2023-08-31T11:55:12;16.20;99.90
31765;DHT22;18338;53.240;8.798;2023-08-31T11:57:39;16.60;99.90
31765;DHT22;18338;53.240;8.798;2023-08-31T12:00:06;16.70;99.90
31765;DHT22;18338;53.240;8.798;2023-08-31T12:02:36;17.00;99.90
31765;DHT22;18338;53.240;8.798;2023-08-31T12:05:04;17.10;99.90
31765;DHT22;18338;53.240;8.798;2023-08-31T12:07:32;17.00;99.90
31765;DHT22;18338;53.240;8.798;2023-08-31T12:10:09;16.80;99.90
31765;DHT22;18338;53.240;8.798;2023-08-31T12:12:38;16.30;99.90
31765;DHT22;18338;53.240;8.798;2023-08-31T12:15:05;15.30;99.90
31765;DHT22;18338;53.240;8.798;2023-08-31T12:17:37;14.50;99.90
31765;DHT22;18338;53.240;8.798;2023-08-31T12:20:05;14.10;99.90
31765;DHT22;18338;53.240;8.798;2023-08-31T12:22:33;13.80;99.90
31765;DHT22;18338;53.240;8.798;2023-08-31T12:24:59;13.70;99.90
31765;DHT22;18338;53.240;8.798;2023-08-31T12:27:26;13.60;99.90
31765;DHT22;18338;53.240;8.798;2023-08-31T12:29:53;13.50;99.90
31765;DHT22;18338;53.240;8.798;2023-08-31T12:32:20;13.40;99.90
31765;DHT22;18338;53.240;8.798;2023-08-31T12:34:46;13.20;99.90
31765;DHT22;18338;53.240;8.798;2023-08-31T12:37:13;13.20;99.90
31765;DHT22;18338;53.240;8.798;2023-08-31T12:39:40;13.20;99.90
31765;DHT22;18338;53.240;8.798;2023-08-31T12:42:09;13.20;99.90
31765;DHT22;18338;53.240;8.798;2023-08-31T12:44:49;13.30;99.90
31765;DHT22;18338;53.240;8.798;2023-08-31T12:47:15;13.50;99.90
31765;DHT22;18338;53.240;8.798;2023-08-31T12:49:42;13.60;99.90
31765;DHT22;18338;53.240;8.798;2023-08-31T12:52:09;13.80;99.90
31765;DHT22;18338;53.240;8.798;2023-08-31T12:54:36;14.00;99.90
31765;DHT22;18338;53.240;8.798;2023-08-31T12:57:02;14.30;99.90
31765;DHT22;18338;53.240;8.798;2023-08-31T12:59:29;14.60;99.90
31765;DHT22;18338;53.240;8.798;2023-08-31T13:01:56;15.10;99.90
31765;DHT22;18338;53.240;8.798;2023-08-31T13:04:23;15.50;99.90
31765;DHT22;18338;53.240;8.798;2023-08-31T13:06:50;15.80;99.90
31765;DHT22;18338;53.240;8.798;2023-08-31T13:09:17;16.10;99.90
31765;DHT22;18338;53.240;8.798;2023-08-31T13:11:44;16.40;99.90
31765;DHT22;18338;53.240;8.798;2023-08-31T13:14:10;16.90;99.90
31765;DHT22;18338;53.240;8.798;2023-08-31T13:16:37;17.20;99.90
31765;DHT22;18338;53.240;8.798;2023-08-31T13:19:06;17.70;99.90
31765;DHT22;18338;53.240;8.798;2023-08-31T13:21:33;18.00;99.90
31765;DHT22;18338;53.240;8.798;2023-08-31T13:24:10;18.20;99.90
31765;DHT22;18338;53.240;8.798;2023-08-31T13:26:37;18.10;99.90
31765;DHT22;18338;53.240;8.798;2023-08-31T13:29:06;18.20;99.90
31765;DHT22;18338;53.240;8.798;2023-08-31T13:31:32;18.80;99.90
31765;DHT22;18338;53.240;8.798;2023-08-31T13:34:00;18.90;99.90
31765;DHT22;18338;53.240;8.798;2023-08-31T13:36:39;19.10;99.90
31765;DHT22;18338;53.240;8.798;2023-08-31T13:42:36;18.50;99.90
31765;DHT22;18338;53.240;8.798;2023-08-31T13:45:08;17.80;99.90
31765;DHT22;18338;53.240;8.798;2023-08-31T13:47:35;17.70;99.90
31765;DHT22;18338;53.240;8.798;2023-08-31T13:50:02;17.20;99.90
31765;DHT22;18338;53.240;8.798;2023-08-31T13:52:30;16.80;99.90
31765;DHT22;18338;53.240;8.798;2023-08-31T13:54:57;16.50;99.90
31765;DHT22;18338;53.240;8.798;2023-08-31T13:57:24;16.40;99.90
31765;DHT22;18338;53.240;8.798;2023-08-31T13:59:50;16.40;99.90
31765;DHT22;18338;53.240;8.798;2023-08-31T14:02:17;16.20;99.90
31765;DHT22;18338;53.240;8.798;2023-08-31T14:04:44;16.00;99.90
31765;DHT22;18338;53.240;8.798;2023-08-31T14:07:10;15.80;99.90
31765;DHT22;18338;53.240;8.798;2023-08-31T14:09:37;15.80;99.90
31765;DHT22;18338;53.240;8.798;2023-08-31T14:12:04;15.80;99.90
31765;DHT22;18338;53.240;8.798;2023-08-31T14:14:31;15.80;99.90
31765;DHT22;18338;53.240;8.798;2023-08-31T14:16:58;16.10;99.90
31765;DHT22;18338;53.240;8.798;2023-08-31T14:19:25;16.60;99.90
31765;DHT22;18338;53.240;8.798;2023-08-31T14:21:52;17.10;99.90
31765;DHT22;18338;53.240;8.798;2023-08-31T14:24:19;17.50;99.90
31765;DHT22;18338;53.240;8.798;2023-08-31T14:26:46;17.80;99.90
31765;DHT22;18338;53.240;8.798;2023-08-31T14:29:13;17.50;99.90
31765;DHT22;18338;53.240;8.798;2023-08-31T14:31:40;17.40;99.90
31765;DHT22;18338;53.240;8.798;2023-08-31T14:34:10;17.30;99.90
31765;DHT22;18338;53.240;8.798;2023-08-31T14:36:36;17.10;99.90
31765;DHT22;18338;53.240;8.798;2023-08-31T14:39:03;17.10;99.90
31765;DHT22;18338;53.240;8.798;2023-08-31T14:41:30;16.80;99.90
31765;DHT22;18338;53.240;8.798;2023-08-31T14:43:57;16.70;99.90
31765;DHT22;18338;53.240;8.798;2023-08-31T14:46:24;16.60;99.90
31765;DHT22;18338;53.240;8.798;2023-08-31T14:48:51;16.70;99.90
31765;DHT22;18338;53.240;8.798;2023-08-31T14:51:21;17.10;99.90
31765;DHT22;18338;53.240;8.798;2023-08-31T14:53:48;17.50;99.90
31765;DHT22;18338;53.240;8.798;2023-08-31T14:56:15;17.80;99.90
31765;DHT22;18338;53.240;8.798;2023-08-31T14:58:42;18.20;99.90
31765;DHT22;18338;53.240;8.798;2023-08-31T15:01:08;19.30;99.90
31765;DHT22;18338;53.240;8.798;2023-08-31T15:03:35;20.60;99.90
31765;DHT22;18338;53.240;8.798;2023-08-31T15:06:03;22.00;99.90
31765;DHT22;18338;53.240;8.798;2023-08-31T15:08:38;23.30;99.90
31765;DHT22;18338;53.240;8.798;2023-08-31T15:11:05;23.70;99.90
31765;DHT22;18338;53.240;8.798;2023-08-31T15:13:37;23.70;99.90
31765;DHT22;18338;53.240;8.798;2023-08-31T15:19:13;20.90;99.90
31765;DHT22;18338;53.240;8.798;2023-08-31T15:21:40;20.00;99.90
31765;DHT22;18338;53.240;8.798;2023-08-31T15:24:07;19.60;99.90
31765;DHT22;18338;53.240;8.798;2023-08-31T15:26:34;20.10;99.90
31765;DHT22;18338;53.240;8.798;2023-08-31T15:29:00;21.20;99.90
31765;DHT22;18338;53.240;8.798;2023-08-31T15:31:27;22.00;99.90
31765;DHT22;18338;53.240;8.798;2023-08-31T15:33:54;23.30;99.90
31765;DHT22;18338;53.240;8.798;2023-08-31T15:36:21;23.50;99.90
31765;DHT22;18338;53.240;8.798;2023-08-31T15:38:48;22.40;99.90
31765;DHT22;18338;53.240;8.798;2023-08-31T15:41:15;21.40;99.90
31765;DHT22;18338;53.240;8.798;2023-08-31T15:43:42;20.20;99.90
31765;DHT22;18338;53.240;8.798;2023-08-31T15:46:09;19.60;99.90
31765;DHT22;18338;53.240;8.798;2023-08-31T15:48:37;19.00;99.90
31765;DHT22;18338;53.240;8.798;2023-08-31T15:51:04;18.60;99.90
31765;DHT22;18338;53.240;8.798;2023-08-31T15:53:30;18.00;99.90
31765;DHT22;18338;53.240;8.798;2023-08-31T15:55:58;17.40;99.90
31765;DHT22;18338;53.240;8.798;2023-08-31T15:58:25;17.10;99.90
31765;DHT22;18338;53.240;8.798;2023-08-31T16:00:53;16.80;99.90
31765;DHT22;18338;53.240;8.798;2023-08-31T16:03:28;16.60;99.90